createdAt,value
2018-09-09T00:00:12.513Z,1010.01
2018-09-09T00:02:38.443Z,1010.02
2018-09-09T00:03:50.021Z,1010.06
2018-09-09T00:04:37.841Z,1010.07
2018-09-09T00:05:41.844Z,1010.04
2018-09-09T00:06:54.656Z,1010.00
2018-09-09T00:08:01.523Z,1010.02
2018-09-09T00:09:00.403Z,1009.99
2018-09-09T00:11:11.082Z,1010.02
2018-09-09T00:12:23.470Z,1010.04
2018-09-09T00:13:32.490Z,1010.00
2018-09-09T00:14:29.631Z,1009.98
2018-09-09T00:15:34.966Z,1009.99
2018-09-09T00:16:35.589Z,1010.01
2018-09-09T00:20:02.549Z,1009.99
2018-09-09T00:21:02.352Z,1009.97
2018-09-09T00:22:04.819Z,1009.96
2018-09-09T00:23:10.459Z,1009.99
2018-09-09T00:24:27.571Z,1009.92
2018-09-09T00:25:20.618Z,1009.86
2018-09-09T00:26:28.921Z,1009.88
2018-09-09T00:27:33.538Z,1009.86
2018-09-09T00:28:46.657Z,1009.90
2018-09-09T00:29:44.212Z,1009.93
2018-09-09T00:31:01.010Z,1009.94
2018-09-09T00:31:54.569Z,1009.94
2018-09-09T00:33:14.651Z,1009.99
2018-09-09T00:34:07.591Z,1009.95
2018-09-09T00:35:12.517Z,1010.00
2018-09-09T00:36:11.925Z,1009.96
2018-09-09T00:37:26.871Z,1009.96
2018-09-09T00:38:31.488Z,1009.95
2018-09-09T00:39:31.707Z,1009.93
2018-09-09T00:41:46.466Z,1009.92
2018-09-09T00:42:54.668Z,1009.86
2018-09-09T00:43:54.474Z,1009.89
2018-09-09T00:45:03.903Z,1009.88
2018-09-09T00:46:07.905Z,1009.92
2018-09-09T00:47:20.511Z,1009.91
2018-09-09T00:49:28.004Z,1009.88
2018-09-09T00:50:32.721Z,1009.83
2018-09-09T00:52:49.431Z,1009.82
2018-09-09T00:53:48.415Z,1009.80
2018-09-09T00:54:55.487Z,1009.86
2018-09-09T00:55:58.159Z,1009.85
2018-09-09T00:57:06.461Z,1009.83
2018-09-09T00:58:09.340Z,1009.77
2018-09-09T00:59:16.824Z,1009.78
2018-09-09T01:00:18.471Z,1009.80
2018-09-09T01:01:22.782Z,1009.88
2018-09-09T01:03:35.603Z,1009.89
2018-09-09T01:04:40.320Z,1009.88
2018-09-09T01:05:49.747Z,1009.89
2018-09-09T01:06:53.953Z,1009.92
2018-09-09T01:08:04.003Z,1009.86
2018-09-09T01:09:04.313Z,1009.92
2018-09-09T01:10:10.364Z,1009.93
2018-09-09T01:11:18.772Z,1009.92
2018-09-09T01:13:33.432Z,1009.95
2018-09-09T01:15:41.446Z,1009.90
2018-09-09T01:16:41.753Z,1009.90
2018-09-09T01:17:46.679Z,1009.86
2018-09-09T01:19:01.025Z,1009.87
2018-09-09T01:20:00.215Z,1009.87
2018-09-09T01:21:06.981Z,1009.88
2018-09-09T01:22:19.281Z,1009.89
2018-09-09T01:23:17.446Z,1009.92
2018-09-09T01:24:24.724Z,1009.94
2018-09-09T01:25:30.977Z,1009.93
2018-09-09T01:26:34.778Z,1009.89
2018-09-09T01:27:37.755Z,1009.85
2018-09-09T01:28:51.588Z,1009.79
2018-09-09T01:29:51.191Z,1009.80
2018-09-09T01:30:55.085Z,1009.82
2018-09-09T01:32:05.541Z,1009.86
2018-09-09T01:33:09.030Z,1009.85
2018-09-09T01:34:12.726Z,1009.82
2018-09-09T01:35:16.214Z,1009.81
2018-09-09T01:36:22.470Z,1009.80
2018-09-09T01:37:30.873Z,1009.77
2018-09-09T01:38:30.372Z,1009.78
2018-09-09T01:39:36.627Z,1009.78
2018-09-09T01:40:40.734Z,1009.78
2018-09-09T01:43:00.823Z,1009.75
2018-09-09T01:44:04.111Z,1009.74
2018-09-09T01:45:04.326Z,1009.73
2018-09-09T01:46:05.355Z,1009.78
2018-09-09T01:47:17.346Z,1009.77
2018-09-09T01:48:18.688Z,1009.79
2018-09-09T01:49:28.425Z,1009.84
2018-09-09T01:50:34.378Z,1009.86
2018-09-09T01:51:38.478Z,1009.86
2018-09-09T01:52:48.219Z,1009.78
2018-09-09T01:53:53.345Z,1009.74
2018-09-09T01:54:51.099Z,1009.72
2018-09-09T01:56:09.031Z,1009.68
2018-09-09T01:58:06.792Z,1009.70
2018-09-09T02:01:29.247Z,1009.76
2018-09-09T02:02:38.479Z,1009.80
2018-09-09T02:03:49.135Z,1009.84
2018-09-09T02:04:48.427Z,1009.85
2018-09-09T02:05:58.269Z,1009.86
2018-09-09T02:08:09.137Z,1009.88
2018-09-09T02:09:01.366Z,1009.91
2018-09-09T02:10:16.224Z,1009.92
2018-09-09T02:11:21.250Z,1009.92
2018-09-09T02:12:40.410Z,1009.86
2018-09-09T02:13:32.739Z,1009.89
2018-09-09T02:14:33.595Z,1009.85
2018-09-09T02:15:37.266Z,1009.88
2018-09-09T02:16:49.564Z,1009.87
2018-09-09T02:17:53.563Z,1009.87
2018-09-09T02:18:50.706Z,1009.88
2018-09-09T02:22:25.451Z,1009.87
2018-09-09T02:23:22.840Z,1009.80
2018-09-09T02:25:29.058Z,1009.78
2018-09-09T02:26:32.755Z,1009.84
2018-09-09T02:27:40.138Z,1009.89
2018-09-09T02:28:54.584Z,1009.88
2018-09-09T02:29:57.463Z,1009.87
2018-09-09T02:30:59.209Z,1009.86
2018-09-09T02:32:07.319Z,1009.89
2018-09-09T02:33:12.337Z,1009.85
2018-09-09T02:34:07.224Z,1009.89
2018-09-09T02:35:26.591Z,1009.88
2018-09-09T02:36:25.280Z,1009.91
2018-09-09T02:39:52.434Z,1009.84
2018-09-09T02:41:57.271Z,1009.83
2018-09-09T02:43:01.061Z,1009.80
2018-09-09T02:44:06.086Z,1009.80
2018-09-09T02:45:17.053Z,1009.78
2018-09-09T02:47:22.802Z,1009.84
2018-09-09T02:50:34.605Z,1009.82
2018-09-09T02:51:45.161Z,1009.82
2018-09-09T02:52:55.104Z,1009.84
2018-09-09T02:53:54.395Z,1009.86
2018-09-09T02:55:01.162Z,1009.84
2018-09-09T02:56:07.114Z,1009.83
2018-09-09T02:57:19.114Z,1009.83
2018-09-09T02:59:22.501Z,1009.79
2018-09-09T03:00:34.490Z,1009.81
2018-09-09T03:01:34.292Z,1009.86
2018-09-09T03:02:36.658Z,1009.90
2018-09-09T03:03:51.137Z,1009.95
2018-09-09T03:07:12.329Z,1010.01
2018-09-09T03:08:05.375Z,1009.99
2018-09-09T03:09:20.540Z,1009.98
2018-09-09T03:10:24.133Z,1010.00
2018-09-09T03:11:32.538Z,1009.96
2018-09-09T03:12:28.247Z,1009.96
2018-09-09T03:13:31.224Z,1009.94
2018-09-09T03:15:50.604Z,1009.97
2018-09-09T03:16:52.349Z,1009.92
2018-09-09T03:19:10.076Z,1009.87
2018-09-09T03:20:04.454Z,1009.86
2018-09-09T03:21:09.077Z,1009.84
2018-09-09T03:22:22.392Z,1009.84
2018-09-09T03:23:28.236Z,1009.84
2018-09-09T03:24:28.757Z,1009.85
2018-09-09T03:25:36.240Z,1009.83
2018-09-09T03:26:38.197Z,1009.77
2018-09-09T03:27:43.846Z,1009.80
2018-09-09T03:29:59.522Z,1009.73
2018-09-09T03:32:07.037Z,1009.64
2018-09-09T03:33:18.290Z,1009.62
2018-09-09T03:34:23.314Z,1009.60
2018-09-09T03:35:28.648Z,1009.62
2018-09-09T03:38:35.638Z,1009.59
2018-09-09T03:39:47.526Z,1009.61
2018-09-09T03:40:45.092Z,1009.64
2018-09-09T03:41:54.303Z,1009.65
2018-09-09T03:43:05.272Z,1009.72
2018-09-09T03:44:08.248Z,1009.81
2018-09-09T03:45:20.238Z,1009.78
2018-09-09T03:46:23.625Z,1009.77
2018-09-09T03:47:24.045Z,1009.76
2018-09-09T03:48:38.597Z,1009.74
2018-09-09T03:51:47.124Z,1009.58
2018-09-09T03:52:54.723Z,1009.60
2018-09-09T03:53:59.430Z,1009.55
2018-09-09T03:55:05.277Z,1009.55
2018-09-09T03:56:06.515Z,1009.56
2018-09-09T03:57:11.644Z,1009.54
2018-09-09T03:58:19.643Z,1009.53
2018-09-09T03:59:26.309Z,1009.57
2018-09-09T04:01:38.208Z,1009.67
2018-09-09T04:03:52.568Z,1009.71
2018-09-09T04:04:53.798Z,1009.78
2018-09-09T04:06:08.756Z,1009.78
2018-09-09T04:07:04.875Z,1009.84
2018-09-09T04:08:07.139Z,1009.86
2018-09-09T04:09:14.215Z,1009.91
2018-09-09T04:10:21.387Z,1009.92
2018-09-09T04:11:24.468Z,1009.90
2018-09-09T04:12:30.315Z,1009.93
2018-09-09T04:13:37.797Z,1009.91
2018-09-09T04:14:39.649Z,1009.92
2018-09-09T04:15:52.360Z,1009.95
2018-09-09T04:16:50.423Z,1009.94
2018-09-09T04:18:00.160Z,1009.94
2018-09-09T04:19:10.100Z,1009.92
2018-09-09T04:20:15.436Z,1009.92
2018-09-09T04:21:19.132Z,1009.94
2018-09-09T04:22:25.799Z,1009.96
2018-09-09T04:23:34.203Z,1009.92
2018-09-09T04:24:28.781Z,1009.96
2018-09-09T04:25:41.289Z,1009.99
2018-09-09T04:26:47.233Z,1009.98
2018-09-09T04:27:48.368Z,1009.97
2018-09-09T04:28:55.137Z,1010.00
2018-09-09T04:30:08.260Z,1009.98
2018-09-09T04:31:10.310Z,1009.95
2018-09-09T04:32:21.072Z,1009.95
2018-09-09T04:33:19.749Z,1009.95
2018-09-09T04:35:26.217Z,1009.87
2018-09-09T04:37:37.806Z,1009.86
2018-09-09T04:38:47.238Z,1009.91
2018-09-09T04:41:02.724Z,1009.86
2018-09-09T04:41:53.308Z,1009.77
2018-09-09T04:43:05.509Z,1009.83
2018-09-09T04:44:09.407Z,1009.86
2018-09-09T04:45:14.023Z,1009.87
2018-09-09T04:46:27.710Z,1009.85
2018-09-09T04:47:33.499Z,1009.85
2018-09-09T04:48:36.364Z,1009.87
2018-09-09T04:49:42.218Z,1009.90
2018-09-09T04:50:45.300Z,1009.90
2018-09-09T04:51:46.848Z,1009.91
2018-09-09T04:52:54.228Z,1009.97
2018-09-09T04:57:19.554Z,1010.00
2018-09-09T04:58:22.324Z,1009.98
2018-09-09T04:59:24.279Z,1009.96
2018-09-09T05:00:36.373Z,1009.97
2018-09-09T05:01:37.716Z,1009.92
2018-09-09T05:02:46.531Z,1009.92
2018-09-09T05:03:50.228Z,1009.94
2018-09-09T05:04:58.325Z,1009.95
2018-09-09T05:07:14.625Z,1009.96
2018-09-09T05:08:20.267Z,1009.96
2018-09-09T05:09:24.066Z,1009.99
2018-09-09T05:12:40.477Z,1010.05
2018-09-09T05:13:40.487Z,1010.04
2018-09-09T05:14:45.412Z,1010.07
2018-09-09T05:16:56.488Z,1010.07
2018-09-09T05:18:07.966Z,1010.10
2018-09-09T05:19:11.663Z,1010.13
2018-09-09T05:20:12.391Z,1010.11
2018-09-09T05:21:10.966Z,1010.09
2018-09-09T05:22:15.793Z,1010.13
2018-09-09T05:23:32.182Z,1010.11
2018-09-09T05:24:29.645Z,1010.11
2018-09-09T05:25:46.434Z,1010.17
2018-09-09T05:26:47.579Z,1010.24
2018-09-09T05:27:49.319Z,1010.25
2018-09-09T05:28:58.340Z,1010.25
2018-09-09T05:31:04.615Z,1010.24
2018-09-09T05:32:14.549Z,1010.24
2018-09-09T05:33:18.857Z,1010.24
2018-09-09T05:36:45.099Z,1010.22
2018-09-09T05:37:46.542Z,1010.16
2018-09-09T05:38:40.713Z,1010.22
2018-09-09T05:39:49.116Z,1010.20
2018-09-09T05:40:56.599Z,1010.23
2018-09-09T05:42:08.951Z,1010.20
2018-09-09T05:43:02.762Z,1010.24
2018-09-09T05:44:19.055Z,1010.18
2018-09-09T05:46:21.632Z,1010.21
2018-09-09T05:47:31.781Z,1010.23
2018-09-09T05:49:39.988Z,1010.21
2018-09-09T05:50:46.039Z,1010.21
2018-09-09T05:51:58.754Z,1010.19
2018-09-09T05:53:02.236Z,1010.22
2018-09-09T05:53:59.238Z,1010.17
2018-09-09T05:55:05.225Z,1010.21
2018-09-09T05:56:08.203Z,1010.22
2018-09-09T05:58:26.450Z,1010.23
2018-09-09T05:59:28.817Z,1010.25
2018-09-09T06:02:46.250Z,1010.32
2018-09-09T06:03:56.194Z,1010.32
2018-09-09T06:05:02.345Z,1010.36
2018-09-09T06:07:07.278Z,1010.34
2018-09-09T06:08:14.763Z,1010.37
2018-09-09T06:10:31.985Z,1010.38
2018-09-09T06:11:31.988Z,1010.41
2018-09-09T06:12:38.858Z,1010.42
2018-09-09T06:13:41.836Z,1010.45
2018-09-09T06:14:48.910Z,1010.46
2018-09-09T06:15:47.692Z,1010.49
2018-09-09T06:16:58.043Z,1010.51
2018-09-09T06:18:07.064Z,1010.51
2018-09-09T06:19:08.200Z,1010.53
2018-09-09T06:21:29.723Z,1010.58
2018-09-09T06:22:31.269Z,1010.60
2018-09-09T06:23:29.540Z,1010.58
2018-09-09T06:24:41.014Z,1010.55
2018-09-09T06:27:52.511Z,1010.61
2018-09-09T06:29:06.044Z,1010.63
2018-09-09T06:31:15.475Z,1010.65
2018-09-09T06:32:22.550Z,1010.59
2018-09-09T06:33:22.151Z,1010.67
2018-09-09T06:34:37.733Z,1010.65
2018-09-09T06:35:31.079Z,1010.68
2018-09-09T06:36:36.208Z,1010.70
2018-09-09T06:37:38.777Z,1010.69
2018-09-09T06:38:58.185Z,1010.74
2018-09-09T06:39:54.465Z,1010.71
2018-09-09T06:41:10.657Z,1010.70
2018-09-09T06:41:58.479Z,1010.72
2018-09-09T06:43:08.630Z,1010.73
2018-09-09T06:45:24.723Z,1010.75
2018-09-09T06:46:28.974Z,1010.72
2018-09-09T06:47:32.841Z,1010.72
2018-09-09T06:49:44.007Z,1010.73
2018-09-09T06:50:54.976Z,1010.70
2018-09-09T06:51:58.060Z,1010.72
2018-09-09T06:53:09.433Z,1010.71
2018-09-09T06:54:22.451Z,1010.74
2018-09-09T06:57:40.704Z,1010.73
2018-09-09T06:58:40.509Z,1010.76
2018-09-09T06:59:35.090Z,1010.74
2018-09-09T07:00:31.208Z,1010.74
2018-09-09T07:02:52.019Z,1010.74
2018-09-09T07:03:51.826Z,1010.73
2018-09-09T07:05:04.013Z,1010.77
2018-09-09T07:06:06.068Z,1010.76
2018-09-09T07:07:15.195Z,1010.78
2018-09-09T07:08:20.229Z,1010.73
2018-09-09T07:10:21.161Z,1010.68
2018-09-09T07:11:36.796Z,1010.72
2018-09-09T07:13:49.243Z,1010.71
2018-09-09T07:14:47.208Z,1010.73
2018-09-09T07:17:14.731Z,1010.69
2018-09-09T07:18:12.728Z,1010.67
2018-09-09T07:19:17.140Z,1010.70
2018-09-09T07:20:30.462Z,1010.70
2018-09-09T07:21:22.791Z,1010.70
2018-09-09T07:24:42.070Z,1010.74
2018-09-09T07:27:01.035Z,1010.74
2018-09-09T07:27:53.159Z,1010.76
2018-09-09T07:30:15.499Z,1010.68
2018-09-09T07:31:16.178Z,1010.72
2018-09-09T07:32:21.662Z,1010.70
2018-09-09T07:33:38.359Z,1010.68
2018-09-09T07:34:36.728Z,1010.71
2018-09-09T07:36:47.193Z,1010.69
2018-09-09T07:37:51.708Z,1010.75
2018-09-09T07:39:04.933Z,1010.76
2018-09-09T07:39:57.666Z,1010.78
2018-09-09T07:41:13.853Z,1010.79
2018-09-09T07:42:24.920Z,1010.78
2018-09-09T07:43:13.868Z,1010.82
2018-09-09T07:44:29.546Z,1010.80
2018-09-09T07:46:32.519Z,1010.87
2018-09-09T07:47:48.415Z,1010.87
2018-09-09T07:48:56.219Z,1010.89
2018-09-09T07:49:46.895Z,1010.88
2018-09-09T07:51:04.952Z,1010.89
2018-09-09T07:54:22.366Z,1010.94
2018-09-09T07:55:22.784Z,1010.92
2018-09-09T07:56:30.575Z,1010.95
2018-09-09T07:57:43.080Z,1010.96
2018-09-09T07:58:55.068Z,1010.98
2018-09-09T07:59:36.232Z,1010.98
2018-09-09T08:01:04.856Z,1010.96
2018-09-09T08:01:57.041Z,1010.98
2018-09-09T08:03:12.295Z,1010.99
2018-09-09T08:04:29.620Z,1010.95
2018-09-09T08:05:12.637Z,1011.00
2018-09-09T08:06:13.466Z,1010.97
2018-09-09T08:07:28.869Z,1010.99
2018-09-09T08:08:37.855Z,1010.96
2018-09-09T08:09:39.296Z,1011.00
2018-09-09T08:10:46.679Z,1011.00
2018-09-09T08:13:58.791Z,1011.03
2018-09-09T08:14:59.826Z,1011.02
2018-09-09T08:16:09.972Z,1010.97
2018-09-09T08:17:13.670Z,1011.00
2018-09-09T08:18:22.746Z,1011.00
2018-09-09T08:21:29.271Z,1011.00
2018-09-09T08:23:42.155Z,1010.94
2018-09-09T08:24:41.690Z,1010.96
2018-09-09T08:26:05.968Z,1010.96
2018-09-09T08:27:00.551Z,1010.97
2018-09-09T08:28:02.300Z,1010.97
2018-09-09T08:29:06.508Z,1010.96
2018-09-09T08:30:16.248Z,1010.96
2018-09-09T08:31:19.530Z,1010.96
2018-09-09T08:32:40.433Z,1010.95
2018-09-09T08:33:28.354Z,1010.94
2018-09-09T08:34:42.624Z,1011.01
2018-09-09T08:35:52.540Z,1010.97
2018-09-09T08:36:46.404Z,1010.98
2018-09-09T08:37:58.906Z,1011.00
2018-09-09T08:39:00.555Z,1011.03
2018-09-09T08:40:03.528Z,1011.02
2018-09-09T08:41:12.549Z,1011.07
2018-09-09T08:42:24.852Z,1011.04
2018-09-09T08:43:25.470Z,1011.05
2018-09-09T08:44:24.968Z,1011.06
2018-09-09T08:46:45.980Z,1011.10
2018-09-09T08:47:50.806Z,1011.11
2018-09-09T08:48:50.612Z,1011.11
2018-09-09T08:49:55.535Z,1011.10
2018-09-09T08:51:00.661Z,1011.10
2018-09-09T08:51:57.173Z,1011.07
2018-09-09T08:53:15.222Z,1011.09
2018-09-09T08:55:21.999Z,1011.08
2018-09-09T08:56:32.557Z,1011.09
2018-09-09T08:57:40.578Z,1011.09
2018-09-09T08:58:40.774Z,1011.06
2018-09-09T08:59:49.174Z,1011.09
2018-09-09T09:01:53.389Z,1011.12
2018-09-09T09:03:02.716Z,1011.06
2018-09-09T09:05:20.758Z,1011.07
2018-09-09T09:06:23.841Z,1011.13
2018-09-09T09:09:39.534Z,1011.12
2018-09-09T09:10:46.816Z,1011.15
2018-09-09T09:11:47.643Z,1011.12
2018-09-09T09:15:08.251Z,1011.14
2018-09-09T09:16:18.306Z,1011.21
2018-09-09T09:17:20.458Z,1011.18
2018-09-09T09:18:19.344Z,1011.17
2018-09-09T09:20:33.394Z,1011.16
2018-09-09T09:22:50.508Z,1011.12
2018-09-09T09:24:51.955Z,1011.13
2018-09-09T09:25:58.126Z,1011.12
2018-09-09T09:26:58.013Z,1011.13
2018-09-09T09:28:05.715Z,1011.13
2018-09-09T09:29:14.008Z,1011.10
2018-09-09T09:30:36.858Z,1011.13
2018-09-09T09:31:32.257Z,1011.12
2018-09-09T09:32:28.682Z,1011.17
2018-09-09T09:34:45.704Z,1011.22
2018-09-09T09:37:59.546Z,1011.13
2018-09-09T09:39:03.345Z,1011.09
2018-09-09T09:40:01.617Z,1011.12
2018-09-09T09:41:12.375Z,1011.09
2018-09-09T09:42:16.275Z,1011.05
2018-09-09T09:43:21.709Z,1011.01
2018-09-09T09:44:25.301Z,1010.99
2018-09-09T09:45:39.134Z,1011.04
2018-09-09T09:46:43.751Z,1011.06
2018-09-09T09:47:57.585Z,1011.04
2018-09-09T09:52:13.600Z,1011.05
2018-09-09T09:53:12.296Z,1011.06
2018-09-09T09:54:23.546Z,1011.05
2018-09-09T09:56:34.213Z,1011.01
2018-09-09T09:58:48.156Z,1010.96
2018-09-09T09:59:52.909Z,1010.97
2018-09-09T10:01:01.285Z,1011.00
2018-09-09T10:03:11.028Z,1011.03
2018-09-09T10:04:12.369Z,1011.05
2018-09-09T10:05:07.055Z,1011.02
2018-09-09T10:06:18.947Z,1011.08
2018-09-09T10:07:29.927Z,1011.03
2018-09-09T10:08:37.426Z,1011.04
2018-09-09T10:09:36.584Z,1011.07
2018-09-09T10:11:38.955Z,1011.13
2018-09-09T10:13:57.929Z,1011.18
2018-09-09T10:15:22.097Z,1011.14
2018-09-09T10:16:06.130Z,1011.13
2018-09-09T10:17:13.621Z,1011.14
2018-09-09T10:18:25.715Z,1011.11
2018-09-09T10:19:30.326Z,1011.10
2018-09-09T10:20:34.128Z,1011.22
2018-09-09T10:21:43.858Z,1011.21
2018-09-09T10:22:44.996Z,1011.21
2018-09-09T10:23:53.190Z,1011.19
2018-09-09T10:24:52.493Z,1011.21
2018-09-09T10:26:01.920Z,1011.17
2018-09-09T10:27:09.199Z,1011.14
2018-09-09T10:28:17.098Z,1011.18
2018-09-09T10:29:26.018Z,1011.15
2018-09-09T10:31:25.004Z,1011.23
2018-09-09T10:32:29.318Z,1011.24
2018-09-09T10:33:38.540Z,1011.24
2018-09-09T10:34:57.082Z,1011.26
2018-09-09T10:35:53.097Z,1011.28
2018-09-09T10:38:05.504Z,1011.20
2018-09-09T10:39:18.022Z,1011.18
2018-09-09T10:40:14.841Z,1011.18
2018-09-09T10:41:19.457Z,1011.17
2018-09-09T10:43:32.683Z,1011.18
2018-09-09T10:44:26.442Z,1011.18
2018-09-09T10:45:50.312Z,1011.15
2018-09-09T10:46:57.436Z,1011.20
2018-09-09T10:48:00.774Z,1011.19
2018-09-09T10:48:54.232Z,1011.24
2018-09-09T10:50:04.684Z,1011.27
2018-09-09T10:51:08.990Z,1011.23
2018-09-09T10:52:31.732Z,1011.24
2018-09-09T10:53:17.971Z,1011.26
2018-09-09T10:57:52.872Z,1011.30
2018-09-09T10:58:56.816Z,1011.27
2018-09-09T10:59:55.957Z,1011.27
2018-09-09T11:01:11.127Z,1011.30
2018-09-09T11:02:11.438Z,1011.27
2018-09-09T11:03:20.868Z,1011.31
2018-09-09T11:04:29.376Z,1011.27
2018-09-09T11:05:21.000Z,1011.25
2018-09-09T11:06:25.305Z,1011.27
2018-09-09T11:08:34.324Z,1011.33
2018-09-09T11:09:53.996Z,1011.30
2018-09-09T11:10:56.666Z,1011.37
2018-09-09T11:11:58.723Z,1011.32
2018-09-09T11:13:01.437Z,1011.33
2018-09-09T11:14:17.788Z,1011.31
2018-09-09T11:15:43.907Z,1011.37
2018-09-09T11:16:20.057Z,1011.35
2018-09-09T11:17:41.872Z,1011.27
2018-09-09T11:18:42.084Z,1011.30
2018-09-09T11:19:30.218Z,1011.28
2018-09-09T11:20:56.746Z,1011.27
2018-09-09T11:21:59.619Z,1011.28
2018-09-09T11:22:53.485Z,1011.30
2018-09-09T11:25:20.550Z,1011.37
2018-09-09T11:26:23.929Z,1011.32
2018-09-09T11:27:36.840Z,1011.28
2018-09-09T11:28:37.058Z,1011.29
2018-09-09T11:29:37.060Z,1011.27
2018-09-09T11:30:36.661Z,1011.25
2018-09-09T11:32:11.688Z,1011.25
2018-09-09T11:33:49.178Z,1011.16
2018-09-09T11:34:44.578Z,1011.12
2018-09-09T11:36:43.059Z,1011.15
2018-09-09T11:38:27.614Z,1011.17
2018-09-09T11:39:01.818Z,1011.16
2018-09-09T11:39:59.983Z,1011.19
2018-09-09T11:41:25.492Z,1011.21
2018-09-09T11:42:28.980Z,1011.19
2018-09-09T11:43:15.995Z,1011.20
2018-09-09T11:44:33.575Z,1011.23
2018-09-09T11:45:24.294Z,1011.23
2018-09-09T11:47:43.870Z,1011.12
2018-09-09T11:49:05.480Z,1011.10
2018-09-09T11:51:13.291Z,1011.07
2018-09-09T11:51:57.725Z,1011.03
2018-09-09T11:53:23.131Z,1011.03
2018-09-09T11:54:17.620Z,1011.00
2018-09-09T11:55:28.372Z,1010.99
2018-09-09T11:56:16.300Z,1011.00
2018-09-09T11:57:42.531Z,1010.94
2018-09-09T11:58:51.536Z,1010.91
2018-09-09T11:59:42.644Z,1010.92
2018-09-09T12:02:10.814Z,1010.86
2018-09-09T12:03:13.587Z,1010.88
2018-09-09T12:04:01.923Z,1010.87
2018-09-09T12:05:06.029Z,1010.85
2018-09-09T12:06:26.104Z,1010.85
2018-09-09T12:07:24.991Z,1010.82
2018-09-09T12:08:37.086Z,1010.83
2018-09-09T12:09:33.990Z,1010.81
2018-09-09T12:10:41.396Z,1010.80
2018-09-09T12:11:53.386Z,1010.83
2018-09-09T12:12:46.021Z,1010.83
2018-09-09T12:13:54.117Z,1010.83
2018-09-09T12:14:53.614Z,1010.84
2018-09-09T12:15:58.541Z,1010.85
2018-09-09T12:18:11.868Z,1010.84
2018-09-09T12:19:08.905Z,1010.82
2018-09-09T12:21:31.971Z,1010.76
2018-09-09T12:22:31.055Z,1010.79
2018-09-09T12:23:33.250Z,1010.77
2018-09-09T12:24:46.320Z,1010.71
2018-09-09T12:25:52.372Z,1010.72
2018-09-09T12:27:04.461Z,1010.67
2018-09-09T12:28:22.497Z,1010.67
2018-09-09T12:29:09.169Z,1010.65
2018-09-09T12:30:18.525Z,1010.69
2018-09-09T12:31:23.754Z,1010.68
2018-09-09T12:32:18.662Z,1010.69
2018-09-09T12:33:30.522Z,1010.65
2018-09-09T12:34:32.885Z,1010.66
2018-09-09T12:36:47.037Z,1010.65
2018-09-09T12:37:58.000Z,1010.68
2018-09-09T12:38:50.941Z,1010.65
2018-09-09T12:39:49.214Z,1010.67
2018-09-09T12:42:09.684Z,1010.77
2018-09-09T12:43:24.664Z,1010.80
2018-09-09T12:44:17.720Z,1010.77
2018-09-09T12:46:40.769Z,1010.82
2018-09-09T12:47:39.651Z,1010.84
2018-09-09T12:48:53.483Z,1010.84
2018-09-09T12:50:12.130Z,1010.81
2018-09-09T12:50:51.965Z,1010.85
2018-09-09T12:51:56.183Z,1010.81
2018-09-09T12:53:06.319Z,1010.78
2018-09-09T12:55:24.462Z,1010.77
2018-09-09T12:56:39.332Z,1010.72
2018-09-09T12:57:30.018Z,1010.73
2018-09-09T12:58:38.318Z,1010.73
2018-09-09T12:59:50.512Z,1010.76
2018-09-09T13:00:47.765Z,1010.75
2018-09-09T13:02:13.436Z,1010.82
2018-09-09T13:04:58.332Z,1010.76
2018-09-09T13:06:23.633Z,1010.74
2018-09-09T13:07:41.458Z,1010.72
2018-09-09T13:08:27.850Z,1010.74
2018-09-09T13:09:26.430Z,1010.73
2018-09-09T13:10:40.468Z,1010.73
2018-09-09T13:13:42.025Z,1010.73
2018-09-09T13:15:23.826Z,1010.66
2018-09-09T13:16:08.984Z,1010.68
2018-09-09T13:17:09.086Z,1010.69
2018-09-09T13:18:16.377Z,1010.72
2018-09-09T13:19:16.689Z,1010.72
2018-09-09T13:20:28.364Z,1010.75
2018-09-09T13:23:39.754Z,1010.72
2018-09-09T13:24:40.691Z,1010.76
2018-09-09T13:25:50.231Z,1010.82
2018-09-09T13:26:54.626Z,1010.77
2018-09-09T13:28:04.263Z,1010.82
2018-09-09T13:29:13.085Z,1010.78
2018-09-09T13:32:28.463Z,1010.72
2018-09-09T13:33:33.695Z,1010.77
2018-09-09T13:34:33.805Z,1010.71
2018-09-09T13:36:44.066Z,1010.81
2018-09-09T13:38:01.072Z,1010.78
2018-09-09T13:39:13.269Z,1010.80
2018-09-09T13:40:12.062Z,1010.72
2018-09-09T13:41:11.857Z,1010.74
2018-09-09T13:42:19.134Z,1010.69
2018-09-09T13:43:22.825Z,1010.78
2018-09-09T13:44:21.197Z,1010.73
2018-09-09T13:45:43.330Z,1010.77
2018-09-09T13:46:41.285Z,1010.73
2018-09-09T13:47:44.169Z,1010.71
2018-09-09T13:48:51.449Z,1010.70
2018-09-09T13:52:13.385Z,1010.77
2018-09-09T13:53:16.463Z,1010.74
2018-09-09T13:54:16.473Z,1010.76
2018-09-09T13:55:28.669Z,1010.77
2018-09-09T13:56:28.064Z,1010.78
2018-09-09T13:58:33.822Z,1010.71
2018-09-09T13:59:40.993Z,1010.75
2018-09-09T14:00:51.454Z,1010.75
2018-09-09T14:01:59.235Z,1010.72
2018-09-09T14:04:06.317Z,1010.70
2018-09-09T14:05:08.988Z,1010.70
2018-09-09T14:07:30.062Z,1010.73
2018-09-09T14:08:25.708Z,1010.73
2018-09-09T14:09:26.944Z,1010.73
2018-09-09T14:12:56.872Z,1010.77
2018-09-09T14:13:59.136Z,1010.80
2018-09-09T14:14:56.173Z,1010.80
2018-09-09T14:16:10.112Z,1010.77
2018-09-09T14:17:09.506Z,1010.75
2018-09-09T14:20:27.348Z,1010.63
2018-09-09T14:21:38.622Z,1010.63
2018-09-09T14:22:41.562Z,1010.65
2018-09-09T14:23:45.607Z,1010.66
2018-09-09T14:24:40.081Z,1010.63
2018-09-09T14:25:59.553Z,1010.63
2018-09-09T14:26:56.596Z,1010.61
2018-09-09T14:28:04.377Z,1010.59
2018-09-09T14:29:08.840Z,1010.59
2018-09-09T14:30:09.923Z,1010.56
2018-09-09T14:32:23.047Z,1010.55
2018-09-09T14:33:31.150Z,1010.55
2018-09-09T14:34:38.426Z,1010.56
2018-09-09T14:35:44.275Z,1010.55
2018-09-09T14:37:03.426Z,1010.49
2018-09-09T14:38:05.390Z,1010.51
2018-09-09T14:39:02.419Z,1010.53
2018-09-09T14:40:10.012Z,1010.54
2018-09-09T14:41:32.557Z,1010.50
2018-09-09T14:42:28.252Z,1010.54
2018-09-09T14:43:16.688Z,1010.55
2018-09-09T14:45:30.026Z,1010.56
2018-09-09T14:46:44.263Z,1010.58
2018-09-09T14:48:00.043Z,1010.58
2018-09-09T14:48:48.172Z,1010.60
2018-09-09T14:49:49.828Z,1010.58
2018-09-09T14:53:25.607Z,1010.60
2018-09-09T14:54:18.527Z,1010.62
2018-09-09T14:56:37.284Z,1010.69
2018-09-09T14:57:40.774Z,1010.68
2018-09-09T14:58:57.886Z,1010.70
2018-09-09T14:59:55.853Z,1010.73
2018-09-09T15:00:49.507Z,1010.73
2018-09-09T15:01:55.863Z,1010.74
2018-09-09T15:03:06.013Z,1010.72
2018-09-09T15:04:06.026Z,1010.71
2018-09-09T15:05:06.344Z,1010.75
2018-09-09T15:06:28.985Z,1010.77
2018-09-09T15:07:23.099Z,1010.75
2018-09-09T15:08:37.108Z,1010.79
2018-09-09T15:09:33.101Z,1010.78
2018-09-09T15:10:53.488Z,1010.78
2018-09-09T15:11:45.814Z,1010.74
2018-09-09T15:13:03.131Z,1010.67
2018-09-09T15:13:55.863Z,1010.65
2018-09-09T15:16:10.830Z,1010.65
2018-09-09T15:17:35.929Z,1010.69
2018-09-09T15:18:24.259Z,1010.70
2018-09-09T15:19:44.244Z,1010.66
2018-09-09T15:20:51.218Z,1010.65
2018-09-09T15:21:44.465Z,1010.63
2018-09-09T15:22:55.440Z,1010.59
2018-09-09T15:24:07.244Z,1010.62
2018-09-09T15:26:13.891Z,1010.57
2018-09-09T15:27:26.801Z,1010.59
2018-09-09T15:28:10.438Z,1010.61
2018-09-09T15:29:34.501Z,1010.60
2018-09-09T15:31:28.271Z,1010.57
2018-09-09T15:32:28.899Z,1010.58
2018-09-09T15:33:48.976Z,1010.52
2018-09-09T15:34:59.224Z,1010.49
2018-09-09T15:36:16.234Z,1010.50
2018-09-09T15:38:02.433Z,1010.45
2018-09-09T15:38:27.414Z,1010.48
2018-09-09T15:40:06.947Z,1010.50
2018-09-09T15:42:16.702Z,1010.52
2018-09-09T15:42:54.536Z,1010.53
2018-09-09T15:44:03.717Z,1010.49
2018-09-09T15:45:09.863Z,1010.49
2018-09-09T15:47:33.024Z,1010.57
2018-09-09T15:48:31.224Z,1010.55
2018-09-09T15:49:22.808Z,1010.55
2018-09-09T15:50:54.147Z,1010.58
2018-09-09T15:51:52.529Z,1010.55
2018-09-09T15:52:47.824Z,1010.56
2018-09-09T15:54:13.217Z,1010.57
2018-09-09T15:55:34.217Z,1010.56
2018-09-09T15:56:22.764Z,1010.58
2018-09-09T15:57:55.444Z,1010.58